sensor_id;sensor_type;location;lat;lon;timestamp;P1;durP1;ratioP1;P2;durP2;ratioP2
53533;SDS011;39421;53.204;6.568;2023-07-29T00:02:13;10.80;;;6.10;;
53533;SDS011;39421;53.204;6.568;2023-07-29T00:04:39;11.17;;;5.83;;
53533;SDS011;39421;53.204;6.568;2023-07-29T00:07:05;10.43;;;5.88;;
53533;SDS011;39421;53.204;6.568;2023-07-29T00:09:31;11.18;;;6.10;;
53533;SDS011;39421;53.204;6.568;2023-07-29T00:11:57;10.65;;;5.95;;
53533;SDS011;39421;53.204;6.568;2023-07-29T00:14:23;11.25;;;6.47;;
53533;SDS011;39421;53.204;6.568;2023-07-29T00:16:50;10.60;;;5.97;;
53533;SDS011;39421;53.204;6.568;2023-07-29T00:19:16;11.02;;;6.18;;
53533;SDS011;39421;53.204;6.568;2023-07-29T00:21:42;11.23;;;6.37;;
53533;SDS011;39421;53.204;6.568;2023-07-29T00:24:08;10.60;;;5.90;;
53533;SDS011;39421;53.204;6.568;2023-07-29T00:26:34;11.27;;;6.47;;
53533;SDS011;39421;53.204;6.568;2023-07-29T00:29:00;11.43;;;6.28;;
53533;SDS011;39421;53.204;6.568;2023-07-29T00:31:26;10.90;;;6.15;;
53533;SDS011;39421;53.204;6.568;2023-07-29T00:33:52;10.52;;;6.20;;
53533;SDS011;39421;53.204;6.568;2023-07-29T00:36:19;11.23;;;6.35;;
53533;SDS011;39421;53.204;6.568;2023-07-29T00:38:45;12.40;;;6.30;;
53533;SDS011;39421;53.204;6.568;2023-07-29T00:41:11;14.60;;;6.80;;
53533;SDS011;39421;53.204;6.568;2023-07-29T00:43:38;13.80;;;7.22;;
53533;SDS011;39421;53.204;6.568;2023-07-29T00:46:04;11.52;;;7.07;;
53533;SDS011;39421;53.204;6.568;2023-07-29T00:48:31;12.18;;;7.10;;
53533;SDS011;39421;53.204;6.568;2023-07-29T00:50:57;11.53;;;7.37;;
53533;SDS011;39421;53.204;6.568;2023-07-29T00:53:23;11.75;;;7.18;;
53533;SDS011;39421;53.204;6.568;2023-07-29T00:55:49;12.75;;;7.22;;
53533;SDS011;39421;53.204;6.568;2023-07-29T00:58:16;13.90;;;7.50;;
53533;SDS011;39421;53.204;6.568;2023-07-29T01:00:42;12.93;;;7.25;;
53533;SDS011;39421;53.204;6.568;2023-07-29T01:03:08;12.13;;;7.10;;
53533;SDS011;39421;53.204;6.568;2023-07-29T01:06:23;11.77;;;7.28;;
53533;SDS011;39421;53.204;6.568;2023-07-29T01:09:03;12.02;;;7.20;;
53533;SDS011;39421;53.204;6.568;2023-07-29T01:11:26;13.15;;;7.30;;
53533;SDS011;39421;53.204;6.568;2023-07-29T01:14:03;15.25;;;7.63;;
53533;SDS011;39421;53.204;6.568;2023-07-29T01:16:31;12.50;;;7.57;;
53533;SDS011;39421;53.204;6.568;2023-07-29T01:18:59;12.48;;;7.57;;
53533;SDS011;39421;53.204;6.568;2023-07-29T01:21:28;11.60;;;6.90;;
53533;SDS011;39421;53.204;6.568;2023-07-29T01:23:58;12.90;;;7.00;;
53533;SDS011;39421;53.204;6.568;2023-07-29T01:26:24;11.82;;;7.05;;
53533;SDS011;39421;53.204;6.568;2023-07-29T01:28:51;11.57;;;7.20;;
53533;SDS011;39421;53.204;6.568;2023-07-29T01:31:23;11.57;;;7.30;;
53533;SDS011;39421;53.204;6.568;2023-07-29T01:33:56;11.87;;;7.23;;
53533;SDS011;39421;53.204;6.568;2023-07-29T01:36:25;12.38;;;7.20;;
53533;SDS011;39421;53.204;6.568;2023-07-29T01:38:52;11.63;;;7.40;;
53533;SDS011;39421;53.204;6.568;2023-07-29T01:41:20;12.05;;;7.50;;
53533;SDS011;39421;53.204;6.568;2023-07-29T01:43:46;11.90;;;6.85;;
53533;SDS011;39421;53.204;6.568;2023-07-29T01:46:13;11.35;;;7.13;;
53533;SDS011;39421;53.204;6.568;2023-07-29T01:48:40;12.60;;;7.40;;
53533;SDS011;39421;53.204;6.568;2023-07-29T01:51:06;11.95;;;7.05;;
53533;SDS011;39421;53.204;6.568;2023-07-29T01:53:32;13.00;;;7.50;;
53533;SDS011;39421;53.204;6.568;2023-07-29T01:55:59;13.52;;;7.30;;
53533;SDS011;39421;53.204;6.568;2023-07-29T01:58:25;11.82;;;7.07;;
53533;SDS011;39421;53.204;6.568;2023-07-29T02:00:51;12.40;;;7.33;;
53533;SDS011;39421;53.204;6.568;2023-07-29T02:03:17;11.63;;;7.22;;
53533;SDS011;39421;53.204;6.568;2023-07-29T02:05:43;12.32;;;7.28;;
53533;SDS011;39421;53.204;6.568;2023-07-29T02:08:10;12.03;;;7.33;;
53533;SDS011;39421;53.204;6.568;2023-07-29T02:10:36;12.10;;;7.38;;
53533;SDS011;39421;53.204;6.568;2023-07-29T02:13:03;13.10;;;7.45;;
53533;SDS011;39421;53.204;6.568;2023-07-29T02:15:29;13.73;;;7.40;;
53533;SDS011;39421;53.204;6.568;2023-07-29T02:17:55;12.32;;;7.55;;
53533;SDS011;39421;53.204;6.568;2023-07-29T02:20:21;12.77;;;7.83;;
53533;SDS011;39421;53.204;6.568;2023-07-29T02:22:47;13.57;;;7.60;;
53533;SDS011;39421;53.204;6.568;2023-07-29T02:25:13;13.38;;;7.80;;
53533;SDS011;39421;53.204;6.568;2023-07-29T02:27:40;13.43;;;8.00;;
53533;SDS011;39421;53.204;6.568;2023-07-29T02:30:06;13.18;;;7.68;;
53533;SDS011;39421;53.204;6.568;2023-07-29T02:32:34;13.25;;;7.95;;
53533;SDS011;39421;53.204;6.568;2023-07-29T02:35:00;13.55;;;7.45;;
53533;SDS011;39421;53.204;6.568;2023-07-29T02:37:27;13.38;;;7.93;;
53533;SDS011;39421;53.204;6.568;2023-07-29T02:39:53;12.75;;;7.80;;
53533;SDS011;39421;53.204;6.568;2023-07-29T02:42:19;15.02;;;7.75;;
53533;SDS011;39421;53.204;6.568;2023-07-29T02:44:45;13.02;;;7.57;;
53533;SDS011;39421;53.204;6.568;2023-07-29T02:47:11;14.35;;;7.65;;
53533;SDS011;39421;53.204;6.568;2023-07-29T02:49:37;13.18;;;7.78;;
53533;SDS011;39421;53.204;6.568;2023-07-29T02:52:03;13.40;;;7.43;;
53533;SDS011;39421;53.204;6.568;2023-07-29T02:54:30;14.02;;;8.00;;
53533;SDS011;39421;53.204;6.568;2023-07-29T02:56:56;12.80;;;7.38;;
53533;SDS011;39421;53.204;6.568;2023-07-29T02:59:22;15.90;;;7.55;;
53533;SDS011;39421;53.204;6.568;2023-07-29T03:01:48;12.63;;;7.60;;
53533;SDS011;39421;53.204;6.568;2023-07-29T03:04:14;13.85;;;7.72;;
53533;SDS011;39421;53.204;6.568;2023-07-29T03:06:40;12.18;;;7.55;;
53533;SDS011;39421;53.204;6.568;2023-07-29T03:09:07;12.00;;;7.13;;
53533;SDS011;39421;53.204;6.568;2023-07-29T03:11:33;13.07;;;7.57;;
53533;SDS011;39421;53.204;6.568;2023-07-29T03:13:59;12.73;;;7.20;;
53533;SDS011;39421;53.204;6.568;2023-07-29T03:16:25;13.30;;;7.05;;
53533;SDS011;39421;53.204;6.568;2023-07-29T03:18:51;13.35;;;7.50;;
53533;SDS011;39421;53.204;6.568;2023-07-29T03:21:18;12.25;;;7.55;;
53533;SDS011;39421;53.204;6.568;2023-07-29T03:23:44;13.20;;;7.30;;
53533;SDS011;39421;53.204;6.568;2023-07-29T03:26:10;12.98;;;7.40;;
53533;SDS011;39421;53.204;6.568;2023-07-29T03:28:37;12.27;;;7.20;;
53533;SDS011;39421;53.204;6.568;2023-07-29T03:31:04;13.52;;;7.20;;
53533;SDS011;39421;53.204;6.568;2023-07-29T03:33:30;12.45;;;6.90;;
53533;SDS011;39421;53.204;6.568;2023-07-29T03:35:56;12.80;;;7.38;;
53533;SDS011;39421;53.204;6.568;2023-07-29T03:38:22;12.93;;;7.13;;
53533;SDS011;39421;53.204;6.568;2023-07-29T03:40:48;11.95;;;6.97;;
53533;SDS011;39421;53.204;6.568;2023-07-29T03:43:14;12.82;;;6.90;;
53533;SDS011;39421;53.204;6.568;2023-07-29T03:45:40;13.70;;;6.90;;
53533;SDS011;39421;53.204;6.568;2023-07-29T03:48:07;15.18;;;7.20;;
53533;SDS011;39421;53.204;6.568;2023-07-29T03:50:33;12.68;;;6.90;;
53533;SDS011;39421;53.204;6.568;2023-07-29T03:53:03;13.20;;;7.28;;
53533;SDS011;39421;53.204;6.568;2023-07-29T03:55:30;12.43;;;6.60;;
53533;SDS011;39421;53.204;6.568;2023-07-29T03:57:56;12.68;;;6.45;;
53533;SDS011;39421;53.204;6.568;2023-07-29T04:00:23;13.32;;;6.50;;
53533;SDS011;39421;53.204;6.568;2023-07-29T04:02:49;12.32;;;6.50;;
53533;SDS011;39421;53.204;6.568;2023-07-29T04:05:15;12.35;;;6.70;;
53533;SDS011;39421;53.204;6.568;2023-07-29T04:07:41;11.77;;;6.22;;
53533;SDS011;39421;53.204;6.568;2023-07-29T04:10:08;13.23;;;6.73;;
53533;SDS011;39421;53.204;6.568;2023-07-29T04:12:34;12.05;;;6.32;;
53533;SDS011;39421;53.204;6.568;2023-07-29T04:15:00;11.70;;;6.35;;
53533;SDS011;39421;53.204;6.568;2023-07-29T04:17:26;11.27;;;6.20;;
53533;SDS011;39421;53.204;6.568;2023-07-29T04:19:52;13.32;;;6.35;;
53533;SDS011;39421;53.204;6.568;2023-07-29T04:22:18;12.07;;;6.20;;
53533;SDS011;39421;53.204;6.568;2023-07-29T04:24:45;13.23;;;6.40;;
53533;SDS011;39421;53.204;6.568;2023-07-29T04:27:11;12.68;;;6.05;;
53533;SDS011;39421;53.204;6.568;2023-07-29T04:29:37;10.98;;;5.68;;
53533;SDS011;39421;53.204;6.568;2023-07-29T04:32:03;11.77;;;5.90;;
53533;SDS011;39421;53.204;6.568;2023-07-29T04:34:30;11.57;;;5.78;;
53533;SDS011;39421;53.204;6.568;2023-07-29T04:36:57;11.35;;;5.70;;
53533;SDS011;39421;53.204;6.568;2023-07-29T04:39:23;11.20;;;5.70;;
53533;SDS011;39421;53.204;6.568;2023-07-29T04:41:49;11.80;;;5.20;;
53533;SDS011;39421;53.204;6.568;2023-07-29T04:44:15;12.25;;;5.40;;
53533;SDS011;39421;53.204;6.568;2023-07-29T04:46:41;10.30;;;5.10;;
53533;SDS011;39421;53.204;6.568;2023-07-29T04:49:07;10.50;;;5.00;;
53533;SDS011;39421;53.204;6.568;2023-07-29T04:51:33;10.55;;;4.72;;
53533;SDS011;39421;53.204;6.568;2023-07-29T04:54:00;9.73;;;4.53;;
53533;SDS011;39421;53.204;6.568;2023-07-29T04:56:26;10.88;;;4.10;;
53533;SDS011;39421;53.204;6.568;2023-07-29T04:58:52;9.48;;;4.30;;
53533;SDS011;39421;53.204;6.568;2023-07-29T05:01:19;9.82;;;4.35;;
53533;SDS011;39421;53.204;6.568;2023-07-29T05:03:45;8.95;;;4.07;;
53533;SDS011;39421;53.204;6.568;2023-07-29T05:06:11;8.20;;;4.10;;
53533;SDS011;39421;53.204;6.568;2023-07-29T05:08:37;8.93;;;3.90;;
53533;SDS011;39421;53.204;6.568;2023-07-29T05:11:03;10.10;;;3.88;;
53533;SDS011;39421;53.204;6.568;2023-07-29T05:13:29;8.40;;;4.07;;
53533;SDS011;39421;53.204;6.568;2023-07-29T05:15:55;8.93;;;3.83;;
53533;SDS011;39421;53.204;6.568;2023-07-29T05:18:21;9.15;;;3.70;;
53533;SDS011;39421;53.204;6.568;2023-07-29T05:20:48;8.50;;;3.30;;
53533;SDS011;39421;53.204;6.568;2023-07-29T05:23:14;8.75;;;3.47;;
53533;SDS011;39421;53.204;6.568;2023-07-29T05:25:40;8.27;;;3.00;;
53533;SDS011;39421;53.204;6.568;2023-07-29T05:28:07;8.23;;;3.10;;
53533;SDS011;39421;53.204;6.568;2023-07-29T05:30:33;6.65;;;2.60;;
53533;SDS011;39421;53.204;6.568;2023-07-29T05:33:02;8.85;;;3.00;;
53533;SDS011;39421;53.204;6.568;2023-07-29T05:35:29;8.80;;;3.08;;
53533;SDS011;39421;53.204;6.568;2023-07-29T05:37:55;7.65;;;2.85;;
53533;SDS011;39421;53.204;6.568;2023-07-29T05:40:21;8.43;;;2.70;;
53533;SDS011;39421;53.204;6.568;2023-07-29T05:42:47;7.47;;;2.80;;
53533;SDS011;39421;53.204;6.568;2023-07-29T05:45:14;6.55;;;2.65;;
53533;SDS011;39421;53.204;6.568;2023-07-29T05:47:40;7.20;;;2.73;;
53533;SDS011;39421;53.204;6.568;2023-07-29T05:50:06;8.15;;;3.30;;
53533;SDS011;39421;53.204;6.568;2023-07-29T05:52:33;7.60;;;3.10;;
53533;SDS011;39421;53.204;6.568;2023-07-29T05:54:59;8.15;;;3.00;;
53533;SDS011;39421;53.204;6.568;2023-07-29T05:57:25;7.95;;;3.00;;
53533;SDS011;39421;53.204;6.568;2023-07-29T05:59:51;9.18;;;3.10;;
53533;SDS011;39421;53.204;6.568;2023-07-29T06:02:18;8.02;;;3.20;;
53533;SDS011;39421;53.204;6.568;2023-07-29T06:04:44;8.43;;;3.13;;
53533;SDS011;39421;53.204;6.568;2023-07-29T06:07:10;7.83;;;2.93;;
53533;SDS011;39421;53.204;6.568;2023-07-29T06:09:36;8.80;;;3.10;;
53533;SDS011;39421;53.204;6.568;2023-07-29T06:12:02;8.35;;;3.10;;
53533;SDS011;39421;53.204;6.568;2023-07-29T06:14:28;8.85;;;3.15;;
53533;SDS011;39421;53.204;6.568;2023-07-29T06:16:54;7.28;;;3.08;;
53533;SDS011;39421;53.204;6.568;2023-07-29T06:19:20;6.90;;;2.70;;
53533;SDS011;39421;53.204;6.568;2023-07-29T06:21:47;8.60;;;3.40;;
53533;SDS011;39421;53.204;6.568;2023-07-29T06:24:16;8.75;;;3.28;;
53533;SDS011;39421;53.204;6.568;2023-07-29T06:26:42;8.88;;;3.10;;
53533;SDS011;39421;53.204;6.568;2023-07-29T06:29:08;7.20;;;3.08;;
53533;SDS011;39421;53.204;6.568;2023-07-29T06:31:35;7.53;;;3.08;;
53533;SDS011;39421;53.204;6.568;2023-07-29T06:34:01;6.85;;;2.63;;
53533;SDS011;39421;53.204;6.568;2023-07-29T06:36:27;6.53;;;3.10;;
53533;SDS011;39421;53.204;6.568;2023-07-29T06:38:53;8.88;;;3.20;;
53533;SDS011;39421;53.204;6.568;2023-07-29T06:41:19;8.77;;;3.00;;
53533;SDS011;39421;53.204;6.568;2023-07-29T06:43:45;8.63;;;2.97;;
53533;SDS011;39421;53.204;6.568;2023-07-29T06:46:11;6.82;;;2.80;;
53533;SDS011;39421;53.204;6.568;2023-07-29T06:48:38;8.87;;;3.20;;
53533;SDS011;39421;53.204;6.568;2023-07-29T06:51:04;9.45;;;3.20;;
53533;SDS011;39421;53.204;6.568;2023-07-29T06:53:30;8.38;;;2.70;;
53533;SDS011;39421;53.204;6.568;2023-07-29T06:55:56;8.18;;;3.00;;
53533;SDS011;39421;53.204;6.568;2023-07-29T06:58:22;9.65;;;2.67;;
53533;SDS011;39421;53.204;6.568;2023-07-29T07:00:49;7.97;;;2.92;;
53533;SDS011;39421;53.204;6.568;2023-07-29T07:03:15;9.07;;;3.10;;
53533;SDS011;39421;53.204;6.568;2023-07-29T07:05:41;10.35;;;3.45;;
53533;SDS011;39421;53.204;6.568;2023-07-29T07:08:07;8.80;;;3.30;;
53533;SDS011;39421;53.204;6.568;2023-07-29T07:10:33;10.13;;;3.25;;
53533;SDS011;39421;53.204;6.568;2023-07-29T07:12:59;10.35;;;3.50;;
53533;SDS011;39421;53.204;6.568;2023-07-29T07:15:25;8.25;;;3.28;;
53533;SDS011;39421;53.204;6.568;2023-07-29T07:17:52;11.35;;;3.60;;
53533;SDS011;39421;53.204;6.568;2023-07-29T07:20:18;9.00;;;3.42;;
53533;SDS011;39421;53.204;6.568;2023-07-29T07:22:44;10.25;;;3.85;;
53533;SDS011;39421;53.204;6.568;2023-07-29T07:25:10;9.38;;;3.22;;
53533;SDS011;39421;53.204;6.568;2023-07-29T07:27:36;9.65;;;3.38;;
53533;SDS011;39421;53.204;6.568;2023-07-29T07:30:03;9.07;;;3.67;;
53533;SDS011;39421;53.204;6.568;2023-07-29T07:32:29;9.02;;;3.42;;
53533;SDS011;39421;53.204;6.568;2023-07-29T07:34:55;9.15;;;3.50;;
53533;SDS011;39421;53.204;6.568;2023-07-29T07:37:22;9.90;;;3.35;;
53533;SDS011;39421;53.204;6.568;2023-07-29T07:39:48;10.35;;;3.88;;
53533;SDS011;39421;53.204;6.568;2023-07-29T07:42:17;9.93;;;4.00;;
53533;SDS011;39421;53.204;6.568;2023-07-29T07:44:43;9.55;;;3.80;;
53533;SDS011;39421;53.204;6.568;2023-07-29T07:47:09;9.63;;;4.20;;
53533;SDS011;39421;53.204;6.568;2023-07-29T07:49:35;9.07;;;3.72;;
53533;SDS011;39421;53.204;6.568;2023-07-29T07:52:01;7.85;;;3.58;;
53533;SDS011;39421;53.204;6.568;2023-07-29T07:54:27;10.38;;;3.60;;
53533;SDS011;39421;53.204;6.568;2023-07-29T07:56:53;9.70;;;4.10;;
53533;SDS011;39421;53.204;6.568;2023-07-29T07:59:20;9.93;;;3.67;;
53533;SDS011;39421;53.204;6.568;2023-07-29T08:01:46;9.38;;;4.22;;
53533;SDS011;39421;53.204;6.568;2023-07-29T08:04:12;11.00;;;4.13;;
53533;SDS011;39421;53.204;6.568;2023-07-29T08:06:38;11.38;;;4.03;;
53533;SDS011;39421;53.204;6.568;2023-07-29T08:09:04;9.57;;;3.97;;
53533;SDS011;39421;53.204;6.568;2023-07-29T08:11:30;10.10;;;4.00;;
53533;SDS011;39421;53.204;6.568;2023-07-29T08:13:59;9.52;;;3.85;;
53533;SDS011;39421;53.204;6.568;2023-07-29T08:16:26;11.80;;;3.88;;
53533;SDS011;39421;53.204;6.568;2023-07-29T08:18:52;8.70;;;4.03;;
53533;SDS011;39421;53.204;6.568;2023-07-29T08:21:18;8.27;;;3.45;;
53533;SDS011;39421;53.204;6.568;2023-07-29T08:23:44;8.43;;;3.43;;
53533;SDS011;39421;53.204;6.568;2023-07-29T08:26:10;7.88;;;3.10;;
53533;SDS011;39421;53.204;6.568;2023-07-29T08:28:37;8.68;;;3.47;;
53533;SDS011;39421;53.204;6.568;2023-07-29T08:31:04;9.43;;;3.20;;
53533;SDS011;39421;53.204;6.568;2023-07-29T08:33:31;8.83;;;3.37;;
53533;SDS011;39421;53.204;6.568;2023-07-29T08:35:58;10.48;;;3.15;;
53533;SDS011;39421;53.204;6.568;2023-07-29T08:38:25;7.40;;;2.83;;
53533;SDS011;39421;53.204;6.568;2023-07-29T08:44:09;8.00;;;2.97;;
53533;SDS011;39421;53.204;6.568;2023-07-29T08:46:35;7.53;;;2.70;;
53533;SDS011;39421;53.204;6.568;2023-07-29T08:49:02;7.88;;;2.75;;
53533;SDS011;39421;53.204;6.568;2023-07-29T08:51:28;7.65;;;2.33;;
53533;SDS011;39421;53.204;6.568;2023-07-29T08:53:55;7.35;;;2.70;;
53533;SDS011;39421;53.204;6.568;2023-07-29T08:56:21;8.35;;;2.50;;
53533;SDS011;39421;53.204;6.568;2023-07-29T08:58:47;7.32;;;2.60;;
53533;SDS011;39421;53.204;6.568;2023-07-29T09:01:20;7.40;;;2.50;;
53533;SDS011;39421;53.204;6.568;2023-07-29T09:03:46;8.05;;;2.50;;
53533;SDS011;39421;53.204;6.568;2023-07-29T09:06:12;6.95;;;2.28;;
53533;SDS011;39421;53.204;6.568;2023-07-29T09:08:39;8.48;;;2.17;;
53533;SDS011;39421;53.204;6.568;2023-07-29T09:11:06;6.78;;;2.10;;
53533;SDS011;39421;53.204;6.568;2023-07-29T09:13:32;6.45;;;2.30;;
53533;SDS011;39421;53.204;6.568;2023-07-29T09:15:58;8.05;;;2.20;;
53533;SDS011;39421;53.204;6.568;2023-07-29T09:18:25;7.72;;;2.35;;
53533;SDS011;39421;53.204;6.568;2023-07-29T09:20:52;5.45;;;1.90;;
53533;SDS011;39421;53.204;6.568;2023-07-29T09:23:19;6.35;;;2.10;;
53533;SDS011;39421;53.204;6.568;2023-07-29T09:25:48;8.13;;;2.38;;
53533;SDS011;39421;53.204;6.568;2023-07-29T09:28:15;5.88;;;1.90;;
53533;SDS011;39421;53.204;6.568;2023-07-29T09:30:42;5.63;;;1.83;;
53533;SDS011;39421;53.204;6.568;2023-07-29T09:33:09;7.13;;;1.83;;
53533;SDS011;39421;53.204;6.568;2023-07-29T09:35:35;6.22;;;1.90;;
53533;SDS011;39421;53.204;6.568;2023-07-29T09:38:02;6.10;;;1.85;;
53533;SDS011;39421;53.204;6.568;2023-07-29T09:40:34;5.25;;;1.60;;
53533;SDS011;39421;53.204;6.568;2023-07-29T09:43:00;5.40;;;1.60;;
53533;SDS011;39421;53.204;6.568;2023-07-29T09:45:27;6.63;;;1.60;;
53533;SDS011;39421;53.204;6.568;2023-07-29T09:47:53;5.22;;;1.52;;
53533;SDS011;39421;53.204;6.568;2023-07-29T09:50:23;6.70;;;1.70;;
53533;SDS011;39421;53.204;6.568;2023-07-29T09:52:50;4.93;;;1.40;;
53533;SDS011;39421;53.204;6.568;2023-07-29T09:55:17;5.45;;;1.70;;
53533;SDS011;39421;53.204;6.568;2023-07-29T09:57:44;4.60;;;1.50;;
53533;SDS011;39421;53.204;6.568;2023-07-29T10:00:10;5.65;;;1.60;;
53533;SDS011;39421;53.204;6.568;2023-07-29T10:02:43;4.45;;;1.50;;
53533;SDS011;39421;53.204;6.568;2023-07-29T10:05:09;4.13;;;1.60;;
53533;SDS011;39421;53.204;6.568;2023-07-29T10:07:36;7.03;;;1.90;;
53533;SDS011;39421;53.204;6.568;2023-07-29T10:10:06;5.78;;;1.77;;
53533;SDS011;39421;53.204;6.568;2023-07-29T10:12:33;5.13;;;1.70;;
53533;SDS011;39421;53.204;6.568;2023-07-29T10:15:02;6.18;;;1.98;;
53533;SDS011;39421;53.204;6.568;2023-07-29T10:17:29;6.50;;;1.95;;
53533;SDS011;39421;53.204;6.568;2023-07-29T10:19:55;4.90;;;1.80;;
53533;SDS011;39421;53.204;6.568;2023-07-29T10:22:27;5.65;;;1.77;;
53533;SDS011;39421;53.204;6.568;2023-07-29T10:24:54;6.05;;;1.85;;
53533;SDS011;39421;53.204;6.568;2023-07-29T10:27:22;6.03;;;1.70;;
53533;SDS011;39421;53.204;6.568;2023-07-29T10:29:50;4.78;;;1.60;;
53533;SDS011;39421;53.204;6.568;2023-07-29T10:32:19;4.50;;;1.60;;
53533;SDS011;39421;53.204;6.568;2023-07-29T10:34:49;6.35;;;1.50;;
53533;SDS011;39421;53.204;6.568;2023-07-29T10:37:15;4.27;;;1.50;;
53533;SDS011;39421;53.204;6.568;2023-07-29T10:39:51;6.22;;;1.50;;
53533;SDS011;39421;53.204;6.568;2023-07-29T10:42:17;6.85;;;1.67;;
53533;SDS011;39421;53.204;6.568;2023-07-29T10:47:26;3.25;;;1.40;;
53533;SDS011;39421;53.204;6.568;2023-07-29T10:49:54;5.38;;;1.50;;
53533;SDS011;39421;53.204;6.568;2023-07-29T10:52:28;11.60;;;1.83;;
53533;SDS011;39421;53.204;6.568;2023-07-29T10:54:54;5.18;;;1.60;;
53533;SDS011;39421;53.204;6.568;2023-07-29T10:57:30;4.55;;;1.58;;
53533;SDS011;39421;53.204;6.568;2023-07-29T10:59:57;6.35;;;1.73;;
53533;SDS011;39421;53.204;6.568;2023-07-29T11:02:30;4.03;;;1.80;;
53533;SDS011;39421;53.204;6.568;2023-07-29T11:04:56;4.57;;;1.80;;
53533;SDS011;39421;53.204;6.568;2023-07-29T11:07:24;7.22;;;1.95;;
53533;SDS011;39421;53.204;6.568;2023-07-29T11:09:54;14.13;;;2.35;;
53533;SDS011;39421;53.204;6.568;2023-07-29T11:17:38;4.03;;;1.52;;
53533;SDS011;39421;53.204;6.568;2023-07-29T11:20:05;4.35;;;1.50;;
53533;SDS011;39421;53.204;6.568;2023-07-29T11:22:34;4.00;;;1.50;;
53533;SDS011;39421;53.204;6.568;2023-07-29T11:25:00;7.60;;;1.90;;
53533;SDS011;39421;53.204;6.568;2023-07-29T11:27:27;5.28;;;1.50;;
53533;SDS011;39421;53.204;6.568;2023-07-29T11:29:56;4.57;;;1.42;;
53533;SDS011;39421;53.204;6.568;2023-07-29T11:32:23;4.30;;;1.50;;
53533;SDS011;39421;53.204;6.568;2023-07-29T11:34:50;3.78;;;1.30;;
53533;SDS011;39421;53.204;6.568;2023-07-29T11:37:16;4.03;;;1.60;;
53533;SDS011;39421;53.204;6.568;2023-07-29T11:39:43;5.22;;;1.70;;
53533;SDS011;39421;53.204;6.568;2023-07-29T11:42:13;4.00;;;1.50;;
53533;SDS011;39421;53.204;6.568;2023-07-29T11:44:40;4.65;;;1.50;;
53533;SDS011;39421;53.204;6.568;2023-07-29T11:47:12;4.85;;;1.70;;
53533;SDS011;39421;53.204;6.568;2023-07-29T11:49:39;6.70;;;1.70;;
53533;SDS011;39421;53.204;6.568;2023-07-29T11:52:09;11.02;;;2.33;;
53533;SDS011;39421;53.204;6.568;2023-07-29T11:54:38;6.82;;;1.98;;
53533;SDS011;39421;53.204;6.568;2023-07-29T11:57:08;5.82;;;1.90;;
53533;SDS011;39421;53.204;6.568;2023-07-29T11:59:36;5.53;;;1.50;;
53533;SDS011;39421;53.204;6.568;2023-07-29T12:02:06;8.02;;;2.00;;
53533;SDS011;39421;53.204;6.568;2023-07-29T12:04:35;7.70;;;2.10;;
53533;SDS011;39421;53.204;6.568;2023-07-29T12:07:02;7.10;;;1.90;;
53533;SDS011;39421;53.204;6.568;2023-07-29T12:09:28;5.53;;;1.75;;
53533;SDS011;39421;53.204;6.568;2023-07-29T12:11:55;5.80;;;1.70;;
53533;SDS011;39421;53.204;6.568;2023-07-29T12:14:21;6.25;;;2.00;;
53533;SDS011;39421;53.204;6.568;2023-07-29T12:16:48;5.80;;;1.98;;
53533;SDS011;39421;53.204;6.568;2023-07-29T12:19:15;5.93;;;1.73;;
53533;SDS011;39421;53.204;6.568;2023-07-29T12:21:43;5.50;;;1.80;;
53533;SDS011;39421;53.204;6.568;2023-07-29T12:24:09;6.20;;;1.92;;
53533;SDS011;39421;53.204;6.568;2023-07-29T12:26:36;5.80;;;2.03;;
53533;SDS011;39421;53.204;6.568;2023-07-29T12:29:12;6.43;;;2.07;;
53533;SDS011;39421;53.204;6.568;2023-07-29T12:31:38;8.13;;;2.60;;
53533;SDS011;39421;53.204;6.568;2023-07-29T12:34:04;8.10;;;2.17;;
53533;SDS011;39421;53.204;6.568;2023-07-29T12:36:41;6.22;;;2.03;;
53533;SDS011;39421;53.204;6.568;2023-07-29T12:39:15;6.40;;;1.92;;
53533;SDS011;39421;53.204;6.568;2023-07-29T12:41:41;5.60;;;1.80;;
53533;SDS011;39421;53.204;6.568;2023-07-29T12:44:07;5.78;;;2.00;;
53533;SDS011;39421;53.204;6.568;2023-07-29T12:46:33;5.65;;;2.10;;
53533;SDS011;39421;53.204;6.568;2023-07-29T12:48:59;6.47;;;2.10;;
53533;SDS011;39421;53.204;6.568;2023-07-29T12:51:26;5.88;;;1.90;;
53533;SDS011;39421;53.204;6.568;2023-07-29T12:53:53;9.48;;;2.28;;
53533;SDS011;39421;53.204;6.568;2023-07-29T12:56:19;6.75;;;1.80;;
53533;SDS011;39421;53.204;6.568;2023-07-29T12:58:45;6.85;;;1.90;;
53533;SDS011;39421;53.204;6.568;2023-07-29T13:01:11;7.13;;;1.90;;
53533;SDS011;39421;53.204;6.568;2023-07-29T13:03:53;4.97;;;2.25;;
53533;SDS011;39421;53.204;6.568;2023-07-29T13:06:19;6.85;;;1.98;;
53533;SDS011;39421;53.204;6.568;2023-07-29T13:08:46;6.60;;;1.95;;
53533;SDS011;39421;53.204;6.568;2023-07-29T13:11:15;5.32;;;1.90;;
53533;SDS011;39421;53.204;6.568;2023-07-29T13:13:41;5.67;;;1.70;;
53533;SDS011;39421;53.204;6.568;2023-07-29T13:16:11;5.43;;;1.80;;
53533;SDS011;39421;53.204;6.568;2023-07-29T13:18:38;4.88;;;1.40;;
53533;SDS011;39421;53.204;6.568;2023-07-29T13:21:04;5.93;;;1.80;;
53533;SDS011;39421;53.204;6.568;2023-07-29T13:23:30;6.47;;;1.80;;
53533;SDS011;39421;53.204;6.568;2023-07-29T13:25:57;5.80;;;1.70;;
53533;SDS011;39421;53.204;6.568;2023-07-29T13:28:23;5.43;;;1.80;;
53533;SDS011;39421;53.204;6.568;2023-07-29T13:30:49;5.95;;;1.70;;
53533;SDS011;39421;53.204;6.568;2023-07-29T13:33:15;6.07;;;1.77;;
53533;SDS011;39421;53.204;6.568;2023-07-29T13:35:42;6.35;;;1.73;;
53533;SDS011;39421;53.204;6.568;2023-07-29T13:38:08;5.27;;;1.70;;
53533;SDS011;39421;53.204;6.568;2023-07-29T13:40:34;5.80;;;1.83;;
53533;SDS011;39421;53.204;6.568;2023-07-29T13:43:00;5.43;;;1.75;;
53533;SDS011;39421;53.204;6.568;2023-07-29T13:45:26;7.03;;;1.90;;
53533;SDS011;39421;53.204;6.568;2023-07-29T13:47:53;6.40;;;1.80;;
53533;SDS011;39421;53.204;6.568;2023-07-29T13:50:19;6.00;;;1.83;;
53533;SDS011;39421;53.204;6.568;2023-07-29T13:52:45;4.25;;;1.60;;
53533;SDS011;39421;53.204;6.568;2023-07-29T13:55:11;4.88;;;1.80;;
53533;SDS011;39421;53.204;6.568;2023-07-29T13:57:38;5.88;;;1.83;;
53533;SDS011;39421;53.204;6.568;2023-07-29T14:00:07;6.25;;;2.03;;
53533;SDS011;39421;53.204;6.568;2023-07-29T14:02:33;6.70;;;2.30;;
53533;SDS011;39421;53.204;6.568;2023-07-29T14:04:59;4.30;;;1.80;;
53533;SDS011;39421;53.204;6.568;2023-07-29T14:07:26;6.73;;;2.00;;
53533;SDS011;39421;53.204;6.568;2023-07-29T14:09:52;7.85;;;2.40;;
53533;SDS011;39421;53.204;6.568;2023-07-29T14:12:18;6.70;;;2.00;;
53533;SDS011;39421;53.204;6.568;2023-07-29T14:14:44;7.10;;;2.25;;
53533;SDS011;39421;53.204;6.568;2023-07-29T14:17:10;5.93;;;2.00;;
53533;SDS011;39421;53.204;6.568;2023-07-29T14:19:38;6.18;;;2.08;;
53533;SDS011;39421;53.204;6.568;2023-07-29T14:22:04;6.90;;;2.10;;
53533;SDS011;39421;53.204;6.568;2023-07-29T14:24:31;6.23;;;2.20;;
53533;SDS011;39421;53.204;6.568;2023-07-29T14:26:57;7.00;;;2.10;;
53533;SDS011;39421;53.204;6.568;2023-07-29T14:29:23;7.70;;;2.20;;
53533;SDS011;39421;53.204;6.568;2023-07-29T14:31:49;6.72;;;1.90;;
53533;SDS011;39421;53.204;6.568;2023-07-29T14:34:15;6.00;;;2.00;;
53533;SDS011;39421;53.204;6.568;2023-07-29T14:36:42;7.45;;;2.20;;
53533;SDS011;39421;53.204;6.568;2023-07-29T14:39:08;6.18;;;2.10;;
53533;SDS011;39421;53.204;6.568;2023-07-29T14:41:34;6.32;;;2.28;;
53533;SDS011;39421;53.204;6.568;2023-07-29T14:44:00;7.30;;;2.10;;
53533;SDS011;39421;53.204;6.568;2023-07-29T14:46:26;6.68;;;2.20;;
53533;SDS011;39421;53.204;6.568;2023-07-29T14:48:52;5.90;;;2.25;;
53533;SDS011;39421;53.204;6.568;2023-07-29T14:51:19;6.47;;;2.00;;
53533;SDS011;39421;53.204;6.568;2023-07-29T14:53:45;7.32;;;2.20;;